sensor_id;sensor_type;location;lat;lon;timestamp;P1;durP1;ratioP1;P2;durP2;ratioP2
17725;SDS011;8983;53.156;17.960;2023-05-07T00:00:39;22.57;;;12.67;;
17725;SDS011;8983;53.156;17.960;2023-05-07T00:03:08;21.07;;;12.43;;
17725;SDS011;8983;53.156;17.960;2023-05-07T00:05:39;24.77;;;12.90;;
17725;SDS011;8983;53.156;17.960;2023-05-07T00:08:07;21.30;;;11.40;;
17725;SDS011;8983;53.156;17.960;2023-05-07T00:10:35;19.67;;;11.80;;
17725;SDS011;8983;53.156;17.960;2023-05-07T00:13:03;17.63;;;12.03;;
17725;SDS011;8983;53.156;17.960;2023-05-07T00:15:31;21.90;;;11.80;;
17725;SDS011;8983;53.156;17.960;2023-05-07T00:17:59;14.93;;;10.73;;
17725;SDS011;8983;53.156;17.960;2023-05-07T00:20:27;19.37;;;11.17;;
17725;SDS011;8983;53.156;17.960;2023-05-07T00:22:57;19.10;;;11.70;;
17725;SDS011;8983;53.156;17.960;2023-05-07T00:25:25;16.50;;;11.73;;
17725;SDS011;8983;53.156;17.960;2023-05-07T00:27:53;18.17;;;11.27;;
17725;SDS011;8983;53.156;17.960;2023-05-07T00:30:21;19.27;;;11.80;;
17725;SDS011;8983;53.156;17.960;2023-05-07T00:32:49;21.03;;;12.20;;
17725;SDS011;8983;53.156;17.960;2023-05-07T00:35:17;22.60;;;10.73;;
17725;SDS011;8983;53.156;17.960;2023-05-07T00:37:45;21.07;;;10.67;;
17725;SDS011;8983;53.156;17.960;2023-05-07T00:40:16;21.70;;;11.80;;
17725;SDS011;8983;53.156;17.960;2023-05-07T00:42:44;19.33;;;10.90;;
17725;SDS011;8983;53.156;17.960;2023-05-07T00:45:13;20.10;;;11.40;;
17725;SDS011;8983;53.156;17.960;2023-05-07T00:47:41;17.70;;;11.40;;
17725;SDS011;8983;53.156;17.960;2023-05-07T00:50:10;17.73;;;10.37;;
17725;SDS011;8983;53.156;17.960;2023-05-07T00:52:39;19.33;;;10.83;;
17725;SDS011;8983;53.156;17.960;2023-05-07T00:55:08;18.20;;;10.07;;
17725;SDS011;8983;53.156;17.960;2023-05-07T00:57:39;24.53;;;11.87;;
17725;SDS011;8983;53.156;17.960;2023-05-07T01:00:08;22.20;;;10.20;;
17725;SDS011;8983;53.156;17.960;2023-05-07T01:02:39;14.10;;;9.33;;
17725;SDS011;8983;53.156;17.960;2023-05-07T01:05:09;16.20;;;9.50;;
17725;SDS011;8983;53.156;17.960;2023-05-07T01:07:39;20.03;;;9.10;;
17725;SDS011;8983;53.156;17.960;2023-05-07T01:10:09;18.47;;;10.43;;
17725;SDS011;8983;53.156;17.960;2023-05-07T01:12:41;32.00;;;10.00;;
17725;SDS011;8983;53.156;17.960;2023-05-07T01:15:10;23.73;;;9.47;;
17725;SDS011;8983;53.156;17.960;2023-05-07T01:17:39;21.33;;;10.37;;
17725;SDS011;8983;53.156;17.960;2023-05-07T01:20:09;23.17;;;9.60;;
17725;SDS011;8983;53.156;17.960;2023-05-07T01:22:40;18.47;;;9.70;;
17725;SDS011;8983;53.156;17.960;2023-05-07T01:25:08;20.63;;;10.23;;
17725;SDS011;8983;53.156;17.960;2023-05-07T01:27:36;24.67;;;9.13;;
17725;SDS011;8983;53.156;17.960;2023-05-07T01:30:05;27.67;;;9.77;;
17725;SDS011;8983;53.156;17.960;2023-05-07T01:32:35;46.80;;;9.37;;
17725;SDS011;8983;53.156;17.960;2023-05-07T01:35:05;22.60;;;9.93;;
17725;SDS011;8983;53.156;17.960;2023-05-07T01:37:37;21.63;;;9.90;;
17725;SDS011;8983;53.156;17.960;2023-05-07T01:40:07;14.13;;;9.53;;
17725;SDS011;8983;53.156;17.960;2023-05-07T01:42:36;19.73;;;9.93;;
17725;SDS011;8983;53.156;17.960;2023-05-07T01:45:05;15.77;;;9.90;;
17725;SDS011;8983;53.156;17.960;2023-05-07T01:47:33;15.17;;;11.53;;
17725;SDS011;8983;53.156;17.960;2023-05-07T01:50:03;15.27;;;10.10;;
17725;SDS011;8983;53.156;17.960;2023-05-07T01:52:32;11.23;;;8.80;;
17725;SDS011;8983;53.156;17.960;2023-05-07T01:55:00;14.07;;;8.40;;
17725;SDS011;8983;53.156;17.960;2023-05-07T01:57:30;15.33;;;9.47;;
17725;SDS011;8983;53.156;17.960;2023-05-07T01:59:58;24.97;;;9.40;;
17725;SDS011;8983;53.156;17.960;2023-05-07T02:02:26;19.77;;;10.30;;
17725;SDS011;8983;53.156;17.960;2023-05-07T02:04:55;18.13;;;9.70;;
17725;SDS011;8983;53.156;17.960;2023-05-07T02:07:24;13.70;;;9.70;;
17725;SDS011;8983;53.156;17.960;2023-05-07T02:09:52;17.20;;;9.60;;
17725;SDS011;8983;53.156;17.960;2023-05-07T02:12:21;17.70;;;10.37;;
17725;SDS011;8983;53.156;17.960;2023-05-07T02:14:51;12.97;;;8.87;;
17725;SDS011;8983;53.156;17.960;2023-05-07T02:17:19;17.53;;;10.13;;
17725;SDS011;8983;53.156;17.960;2023-05-07T02:19:47;14.03;;;9.63;;
17725;SDS011;8983;53.156;17.960;2023-05-07T02:22:15;13.57;;;9.90;;
17725;SDS011;8983;53.156;17.960;2023-05-07T02:24:43;15.20;;;9.63;;
17725;SDS011;8983;53.156;17.960;2023-05-07T02:27:11;12.03;;;8.60;;
17725;SDS011;8983;53.156;17.960;2023-05-07T02:29:39;15.47;;;9.20;;
17725;SDS011;8983;53.156;17.960;2023-05-07T02:32:09;12.60;;;8.63;;
17725;SDS011;8983;53.156;17.960;2023-05-07T02:34:37;15.67;;;9.83;;
17725;SDS011;8983;53.156;17.960;2023-05-07T02:37:05;18.30;;;10.30;;
17725;SDS011;8983;53.156;17.960;2023-05-07T02:39:33;14.20;;;10.93;;
17725;SDS011;8983;53.156;17.960;2023-05-07T02:42:01;17.03;;;11.80;;
17725;SDS011;8983;53.156;17.960;2023-05-07T02:44:30;20.90;;;13.67;;
17725;SDS011;8983;53.156;17.960;2023-05-07T02:46:58;33.50;;;17.83;;
17725;SDS011;8983;53.156;17.960;2023-05-07T02:49:27;31.17;;;18.57;;
17725;SDS011;8983;53.156;17.960;2023-05-07T02:51:56;53.27;;;23.40;;
17725;SDS011;8983;53.156;17.960;2023-05-07T02:54:23;91.23;;;29.23;;
17725;SDS011;8983;53.156;17.960;2023-05-07T02:56:51;90.57;;;29.27;;
17725;SDS011;8983;53.156;17.960;2023-05-07T02:59:19;69.77;;;29.00;;
17725;SDS011;8983;53.156;17.960;2023-05-07T03:01:48;43.60;;;24.63;;
17725;SDS011;8983;53.156;17.960;2023-05-07T03:04:16;49.90;;;29.43;;
17725;SDS011;8983;53.156;17.960;2023-05-07T03:06:45;51.43;;;29.73;;
17725;SDS011;8983;53.156;17.960;2023-05-07T03:09:13;46.33;;;27.63;;
17725;SDS011;8983;53.156;17.960;2023-05-07T03:11:42;46.37;;;29.73;;
17725;SDS011;8983;53.156;17.960;2023-05-07T03:14:10;83.83;;;43.10;;
17725;SDS011;8983;53.156;17.960;2023-05-07T03:16:39;54.93;;;33.17;;
17725;SDS011;8983;53.156;17.960;2023-05-07T03:19:07;62.27;;;33.70;;
17725;SDS011;8983;53.156;17.960;2023-05-07T03:21:35;60.93;;;32.13;;
17725;SDS011;8983;53.156;17.960;2023-05-07T03:24:05;49.20;;;29.27;;
17725;SDS011;8983;53.156;17.960;2023-05-07T03:26:33;61.70;;;32.07;;
17725;SDS011;8983;53.156;17.960;2023-05-07T03:29:01;51.03;;;29.10;;
17725;SDS011;8983;53.156;17.960;2023-05-07T03:31:29;47.30;;;28.97;;
17725;SDS011;8983;53.156;17.960;2023-05-07T03:33:57;36.07;;;22.77;;
17725;SDS011;8983;53.156;17.960;2023-05-07T03:36:25;53.90;;;29.77;;
17725;SDS011;8983;53.156;17.960;2023-05-07T03:38:54;68.10;;;35.57;;
17725;SDS011;8983;53.156;17.960;2023-05-07T03:41:23;61.07;;;34.97;;
17725;SDS011;8983;53.156;17.960;2023-05-07T03:43:52;57.77;;;32.70;;
17725;SDS011;8983;53.156;17.960;2023-05-07T03:46:20;55.20;;;31.57;;
17725;SDS011;8983;53.156;17.960;2023-05-07T03:48:48;63.47;;;28.43;;
17725;SDS011;8983;53.156;17.960;2023-05-07T03:51:16;52.10;;;29.00;;
17725;SDS011;8983;53.156;17.960;2023-05-07T03:53:44;36.53;;;23.10;;
17725;SDS011;8983;53.156;17.960;2023-05-07T03:56:12;30.03;;;19.00;;
17725;SDS011;8983;53.156;17.960;2023-05-07T03:58:44;24.23;;;14.37;;
17725;SDS011;8983;53.156;17.960;2023-05-07T04:01:12;20.30;;;11.20;;
17725;SDS011;8983;53.156;17.960;2023-05-07T04:03:40;17.63;;;10.93;;
17725;SDS011;8983;53.156;17.960;2023-05-07T04:06:08;16.37;;;10.00;;
17725;SDS011;8983;53.156;17.960;2023-05-07T04:08:36;16.40;;;9.90;;
17725;SDS011;8983;53.156;17.960;2023-05-07T04:11:04;13.07;;;9.63;;
17725;SDS011;8983;53.156;17.960;2023-05-07T04:13:32;14.30;;;9.10;;
17725;SDS011;8983;53.156;17.960;2023-05-07T04:16:02;15.57;;;9.97;;
17725;SDS011;8983;53.156;17.960;2023-05-07T04:18:31;13.40;;;9.03;;
17725;SDS011;8983;53.156;17.960;2023-05-07T04:20:59;14.43;;;9.40;;
17725;SDS011;8983;53.156;17.960;2023-05-07T04:23:27;17.30;;;10.07;;
17725;SDS011;8983;53.156;17.960;2023-05-07T04:25:56;15.40;;;9.67;;
17725;SDS011;8983;53.156;17.960;2023-05-07T04:28:24;14.70;;;9.87;;
17725;SDS011;8983;53.156;17.960;2023-05-07T04:30:52;15.33;;;10.00;;
17725;SDS011;8983;53.156;17.960;2023-05-07T04:33:21;15.20;;;9.37;;
17725;SDS011;8983;53.156;17.960;2023-05-07T04:35:49;14.33;;;9.77;;
17725;SDS011;8983;53.156;17.960;2023-05-07T04:38:17;17.07;;;10.13;;
17725;SDS011;8983;53.156;17.960;2023-05-07T04:40:45;14.00;;;9.83;;
17725;SDS011;8983;53.156;17.960;2023-05-07T04:43:14;12.50;;;9.30;;
17725;SDS011;8983;53.156;17.960;2023-05-07T04:45:42;18.43;;;10.20;;
17725;SDS011;8983;53.156;17.960;2023-05-07T04:48:10;14.67;;;10.03;;
17725;SDS011;8983;53.156;17.960;2023-05-07T04:50:42;19.70;;;11.70;;
17725;SDS011;8983;53.156;17.960;2023-05-07T04:53:10;17.83;;;11.43;;
17725;SDS011;8983;53.156;17.960;2023-05-07T04:55:38;19.37;;;12.10;;
17725;SDS011;8983;53.156;17.960;2023-05-07T04:58:06;18.00;;;11.23;;
17725;SDS011;8983;53.156;17.960;2023-05-07T05:00:35;13.70;;;10.07;;
17725;SDS011;8983;53.156;17.960;2023-05-07T05:03:03;18.23;;;10.50;;
17725;SDS011;8983;53.156;17.960;2023-05-07T05:05:31;16.00;;;10.47;;
17725;SDS011;8983;53.156;17.960;2023-05-07T05:08:00;16.60;;;10.57;;
17725;SDS011;8983;53.156;17.960;2023-05-07T05:10:28;14.53;;;10.53;;
17725;SDS011;8983;53.156;17.960;2023-05-07T05:12:56;17.90;;;10.60;;
17725;SDS011;8983;53.156;17.960;2023-05-07T05:15:24;15.33;;;10.30;;
17725;SDS011;8983;53.156;17.960;2023-05-07T05:17:52;13.90;;;10.70;;
17725;SDS011;8983;53.156;17.960;2023-05-07T05:20:21;16.40;;;11.13;;
17725;SDS011;8983;53.156;17.960;2023-05-07T05:22:49;15.57;;;10.27;;
17725;SDS011;8983;53.156;17.960;2023-05-07T05:25:18;15.33;;;10.77;;
17725;SDS011;8983;53.156;17.960;2023-05-07T05:27:46;15.33;;;10.07;;
17725;SDS011;8983;53.156;17.960;2023-05-07T05:30:14;16.67;;;11.13;;
17725;SDS011;8983;53.156;17.960;2023-05-07T05:32:42;14.57;;;10.07;;
17725;SDS011;8983;53.156;17.960;2023-05-07T05:35:11;16.47;;;10.00;;
17725;SDS011;8983;53.156;17.960;2023-05-07T05:37:39;16.33;;;10.93;;
17725;SDS011;8983;53.156;17.960;2023-05-07T05:40:07;14.20;;;10.73;;
17725;SDS011;8983;53.156;17.960;2023-05-07T05:42:37;16.50;;;12.00;;
17725;SDS011;8983;53.156;17.960;2023-05-07T05:45:06;19.93;;;11.03;;
17725;SDS011;8983;53.156;17.960;2023-05-07T05:47:35;14.97;;;11.00;;
17725;SDS011;8983;53.156;17.960;2023-05-07T05:50:03;13.90;;;10.50;;
17725;SDS011;8983;53.156;17.960;2023-05-07T05:52:32;17.00;;;9.70;;
17725;SDS011;8983;53.156;17.960;2023-05-07T05:55:00;13.07;;;9.57;;
17725;SDS011;8983;53.156;17.960;2023-05-07T05:57:29;15.07;;;10.30;;
17725;SDS011;8983;53.156;17.960;2023-05-07T05:59:58;22.47;;;10.77;;
17725;SDS011;8983;53.156;17.960;2023-05-07T06:02:27;13.07;;;9.93;;
17725;SDS011;8983;53.156;17.960;2023-05-07T06:04:55;12.83;;;9.87;;
17725;SDS011;8983;53.156;17.960;2023-05-07T06:07:23;14.47;;;9.37;;
17725;SDS011;8983;53.156;17.960;2023-05-07T06:09:51;15.93;;;9.50;;
17725;SDS011;8983;53.156;17.960;2023-05-07T06:12:20;15.33;;;9.50;;
17725;SDS011;8983;53.156;17.960;2023-05-07T06:14:48;15.33;;;9.83;;
17725;SDS011;8983;53.156;17.960;2023-05-07T06:17:17;12.30;;;8.73;;
17725;SDS011;8983;53.156;17.960;2023-05-07T06:19:47;12.63;;;8.33;;
17725;SDS011;8983;53.156;17.960;2023-05-07T06:22:15;11.83;;;8.10;;
17725;SDS011;8983;53.156;17.960;2023-05-07T06:24:43;12.37;;;8.13;;
17725;SDS011;8983;53.156;17.960;2023-05-07T06:27:11;10.60;;;7.30;;
17725;SDS011;8983;53.156;17.960;2023-05-07T06:29:39;13.00;;;7.47;;
17725;SDS011;8983;53.156;17.960;2023-05-07T06:32:07;7.97;;;6.47;;
17725;SDS011;8983;53.156;17.960;2023-05-07T06:34:37;9.07;;;6.60;;
17725;SDS011;8983;53.156;17.960;2023-05-07T06:37:06;10.40;;;6.93;;
17725;SDS011;8983;53.156;17.960;2023-05-07T06:39:34;10.63;;;7.17;;
17725;SDS011;8983;53.156;17.960;2023-05-07T06:42:03;18.63;;;7.37;;
17725;SDS011;8983;53.156;17.960;2023-05-07T06:44:31;9.57;;;7.03;;
17725;SDS011;8983;53.156;17.960;2023-05-07T06:46:59;9.27;;;7.13;;
17725;SDS011;8983;53.156;17.960;2023-05-07T06:49:27;10.70;;;7.90;;
17725;SDS011;8983;53.156;17.960;2023-05-07T06:51:56;8.37;;;6.63;;
17725;SDS011;8983;53.156;17.960;2023-05-07T06:54:25;10.47;;;6.87;;
17725;SDS011;8983;53.156;17.960;2023-05-07T06:56:53;9.47;;;6.63;;
17725;SDS011;8983;53.156;17.960;2023-05-07T06:59:21;7.23;;;5.77;;
17725;SDS011;8983;53.156;17.960;2023-05-07T07:01:49;8.23;;;6.40;;
17725;SDS011;8983;53.156;17.960;2023-05-07T07:04:17;9.40;;;6.00;;
17725;SDS011;8983;53.156;17.960;2023-05-07T07:06:45;9.93;;;6.13;;
17725;SDS011;8983;53.156;17.960;2023-05-07T07:09:15;9.00;;;7.10;;
17725;SDS011;8983;53.156;17.960;2023-05-07T07:11:43;8.93;;;6.00;;
17725;SDS011;8983;53.156;17.960;2023-05-07T07:14:11;10.23;;;6.83;;
17725;SDS011;8983;53.156;17.960;2023-05-07T07:16:39;12.37;;;6.43;;
17725;SDS011;8983;53.156;17.960;2023-05-07T07:19:07;8.67;;;6.40;;
17725;SDS011;8983;53.156;17.960;2023-05-07T07:21:35;10.50;;;5.83;;
17725;SDS011;8983;53.156;17.960;2023-05-07T07:24:04;8.97;;;6.20;;
17725;SDS011;8983;53.156;17.960;2023-05-07T07:26:33;7.70;;;5.50;;
17725;SDS011;8983;53.156;17.960;2023-05-07T07:29:01;6.50;;;5.43;;
17725;SDS011;8983;53.156;17.960;2023-05-07T07:31:30;7.97;;;6.17;;
17725;SDS011;8983;53.156;17.960;2023-05-07T07:33:58;8.47;;;6.37;;
17725;SDS011;8983;53.156;17.960;2023-05-07T07:36:26;6.77;;;5.70;;
17725;SDS011;8983;53.156;17.960;2023-05-07T07:39:07;8.43;;;5.70;;
17725;SDS011;8983;53.156;17.960;2023-05-07T07:41:37;7.90;;;5.50;;
17725;SDS011;8983;53.156;17.960;2023-05-07T07:44:06;7.07;;;5.50;;
17725;SDS011;8983;53.156;17.960;2023-05-07T07:46:35;6.17;;;4.57;;
17725;SDS011;8983;53.156;17.960;2023-05-07T07:49:03;6.73;;;4.53;;
17725;SDS011;8983;53.156;17.960;2023-05-07T07:51:31;8.23;;;4.27;;
17725;SDS011;8983;53.156;17.960;2023-05-07T07:53:59;8.23;;;4.93;;
17725;SDS011;8983;53.156;17.960;2023-05-07T07:56:28;9.37;;;4.90;;
17725;SDS011;8983;53.156;17.960;2023-05-07T07:58:58;5.80;;;3.90;;
17725;SDS011;8983;53.156;17.960;2023-05-07T08:01:26;5.03;;;3.53;;
17725;SDS011;8983;53.156;17.960;2023-05-07T08:03:55;5.07;;;3.80;;
17725;SDS011;8983;53.156;17.960;2023-05-07T08:06:25;5.03;;;3.80;;
17725;SDS011;8983;53.156;17.960;2023-05-07T08:08:53;4.43;;;3.60;;
17725;SDS011;8983;53.156;17.960;2023-05-07T08:11:21;7.23;;;4.03;;
17725;SDS011;8983;53.156;17.960;2023-05-07T08:13:49;4.87;;;3.40;;
17725;SDS011;8983;53.156;17.960;2023-05-07T08:16:19;4.37;;;3.60;;
17725;SDS011;8983;53.156;17.960;2023-05-07T08:18:49;4.70;;;3.50;;
17725;SDS011;8983;53.156;17.960;2023-05-07T08:21:17;5.63;;;3.57;;
17725;SDS011;8983;53.156;17.960;2023-05-07T08:23:46;5.57;;;3.40;;
17725;SDS011;8983;53.156;17.960;2023-05-07T08:26:14;9.03;;;3.63;;
17725;SDS011;8983;53.156;17.960;2023-05-07T08:28:42;4.03;;;3.53;;
17725;SDS011;8983;53.156;17.960;2023-05-07T08:31:11;5.63;;;3.83;;
17725;SDS011;8983;53.156;17.960;2023-05-07T08:33:40;5.80;;;3.90;;
17725;SDS011;8983;53.156;17.960;2023-05-07T08:36:08;6.67;;;3.60;;
17725;SDS011;8983;53.156;17.960;2023-05-07T08:38:36;4.80;;;4.13;;
17725;SDS011;8983;53.156;17.960;2023-05-07T08:41:06;4.40;;;3.67;;
17725;SDS011;8983;53.156;17.960;2023-05-07T08:43:37;6.47;;;3.50;;
17725;SDS011;8983;53.156;17.960;2023-05-07T08:46:08;3.73;;;3.10;;
17725;SDS011;8983;53.156;17.960;2023-05-07T08:48:37;2.83;;;2.53;;
17725;SDS011;8983;53.156;17.960;2023-05-07T08:51:08;3.33;;;3.03;;
17725;SDS011;8983;53.156;17.960;2023-05-07T08:53:39;4.87;;;3.00;;
17725;SDS011;8983;53.156;17.960;2023-05-07T08:56:08;4.10;;;3.20;;
17725;SDS011;8983;53.156;17.960;2023-05-07T08:58:37;5.30;;;3.07;;
17725;SDS011;8983;53.156;17.960;2023-05-07T09:01:06;3.20;;;2.90;;
17725;SDS011;8983;53.156;17.960;2023-05-07T09:03:36;3.17;;;2.73;;
17725;SDS011;8983;53.156;17.960;2023-05-07T09:06:06;3.60;;;2.80;;
17725;SDS011;8983;53.156;17.960;2023-05-07T09:08:35;4.07;;;2.80;;
17725;SDS011;8983;53.156;17.960;2023-05-07T09:11:03;4.20;;;2.70;;
17725;SDS011;8983;53.156;17.960;2023-05-07T09:13:31;4.67;;;2.90;;
17725;SDS011;8983;53.156;17.960;2023-05-07T09:16:06;3.13;;;2.70;;
17725;SDS011;8983;53.156;17.960;2023-05-07T09:18:40;4.13;;;2.70;;
17725;SDS011;8983;53.156;17.960;2023-05-07T09:21:14;3.57;;;2.80;;
17725;SDS011;8983;53.156;17.960;2023-05-07T09:23:43;2.60;;;2.40;;
17725;SDS011;8983;53.156;17.960;2023-05-07T09:26:11;2.60;;;2.40;;
17725;SDS011;8983;53.156;17.960;2023-05-07T09:28:39;3.83;;;2.40;;
17725;SDS011;8983;53.156;17.960;2023-05-07T09:31:08;3.77;;;2.40;;
17725;SDS011;8983;53.156;17.960;2023-05-07T09:33:37;4.40;;;2.27;;
17725;SDS011;8983;53.156;17.960;2023-05-07T09:36:06;2.63;;;2.40;;
17725;SDS011;8983;53.156;17.960;2023-05-07T09:38:37;2.60;;;2.40;;
17725;SDS011;8983;53.156;17.960;2023-05-07T09:41:06;4.10;;;2.50;;
17725;SDS011;8983;53.156;17.960;2023-05-07T09:43:35;3.23;;;2.57;;
17725;SDS011;8983;53.156;17.960;2023-05-07T09:46:06;4.60;;;3.00;;
17725;SDS011;8983;53.156;17.960;2023-05-07T09:48:36;3.07;;;2.63;;
17725;SDS011;8983;53.156;17.960;2023-05-07T09:51:08;3.47;;;2.57;;
17725;SDS011;8983;53.156;17.960;2023-05-07T09:53:54;3.40;;;2.40;;
17725;SDS011;8983;53.156;17.960;2023-05-07T09:56:26;3.80;;;2.50;;
17725;SDS011;8983;53.156;17.960;2023-05-07T09:58:54;3.20;;;2.63;;
17725;SDS011;8983;53.156;17.960;2023-05-07T10:01:26;3.20;;;2.90;;
17725;SDS011;8983;53.156;17.960;2023-05-07T10:03:55;3.73;;;2.47;;
17725;SDS011;8983;53.156;17.960;2023-05-07T10:06:24;2.73;;;2.43;;
17725;SDS011;8983;53.156;17.960;2023-05-07T10:08:53;4.30;;;2.60;;
17725;SDS011;8983;53.156;17.960;2023-05-07T10:11:23;3.90;;;2.87;;
17725;SDS011;8983;53.156;17.960;2023-05-07T10:13:51;5.17;;;3.40;;
17725;SDS011;8983;53.156;17.960;2023-05-07T10:16:20;4.60;;;3.00;;
17725;SDS011;8983;53.156;17.960;2023-05-07T10:18:48;4.90;;;3.20;;
17725;SDS011;8983;53.156;17.960;2023-05-07T10:21:19;3.20;;;2.90;;
17725;SDS011;8983;53.156;17.960;2023-05-07T10:23:48;3.60;;;3.10;;
17725;SDS011;8983;53.156;17.960;2023-05-07T10:26:20;3.70;;;2.90;;
17725;SDS011;8983;53.156;17.960;2023-05-07T10:28:51;3.93;;;2.73;;
17725;SDS011;8983;53.156;17.960;2023-05-07T10:31:28;4.80;;;3.10;;
17725;SDS011;8983;53.156;17.960;2023-05-07T10:34:07;4.40;;;2.90;;
17725;SDS011;8983;53.156;17.960;2023-05-07T10:36:37;3.17;;;2.47;;
17725;SDS011;8983;53.156;17.960;2023-05-07T10:39:06;3.27;;;2.97;;
17725;SDS011;8983;53.156;17.960;2023-05-07T10:41:36;4.60;;;2.87;;
17725;SDS011;8983;53.156;17.960;2023-05-07T10:44:04;4.90;;;2.90;;
17725;SDS011;8983;53.156;17.960;2023-05-07T10:46:32;3.00;;;2.53;;
17725;SDS011;8983;53.156;17.960;2023-05-07T10:49:08;2.90;;;2.70;;
17725;SDS011;8983;53.156;17.960;2023-05-07T10:51:38;4.50;;;2.97;;
17725;SDS011;8983;53.156;17.960;2023-05-07T10:54:18;3.50;;;3.20;;
17725;SDS011;8983;53.156;17.960;2023-05-07T10:56:49;4.27;;;3.37;;
17725;SDS011;8983;53.156;17.960;2023-05-07T10:59:31;3.97;;;2.73;;
17725;SDS011;8983;53.156;17.960;2023-05-07T11:02:09;4.50;;;3.10;;
17725;SDS011;8983;53.156;17.960;2023-05-07T11:04:40;3.97;;;3.10;;
17725;SDS011;8983;53.156;17.960;2023-05-07T11:09:59;2.93;;;2.67;;
17725;SDS011;8983;53.156;17.960;2023-05-07T11:18:17;3.67;;;3.20;;
17725;SDS011;8983;53.156;17.960;2023-05-07T11:20:46;2.93;;;2.60;;
17725;SDS011;8983;53.156;17.960;2023-05-07T11:26:28;3.33;;;3.03;;
17725;SDS011;8983;53.156;17.960;2023-05-07T11:28:59;4.10;;;2.60;;
17725;SDS011;8983;53.156;17.960;2023-05-07T11:31:27;3.77;;;2.60;;
17725;SDS011;8983;53.156;17.960;2023-05-07T11:33:56;3.13;;;2.50;;
17725;SDS011;8983;53.156;17.960;2023-05-07T11:36:25;2.60;;;2.40;;
17725;SDS011;8983;53.156;17.960;2023-05-07T11:38:59;3.67;;;2.70;;
17725;SDS011;8983;53.156;17.960;2023-05-07T11:41:33;3.13;;;2.83;;
17725;SDS011;8983;53.156;17.960;2023-05-07T11:44:03;3.90;;;2.63;;
17725;SDS011;8983;53.156;17.960;2023-05-07T11:46:33;4.07;;;2.87;;
17725;SDS011;8983;53.156;17.960;2023-05-07T11:49:01;6.50;;;3.10;;
17725;SDS011;8983;53.156;17.960;2023-05-07T11:51:29;5.17;;;3.10;;
17725;SDS011;8983;53.156;17.960;2023-05-07T11:53:58;2.63;;;2.43;;
17725;SDS011;8983;53.156;17.960;2023-05-07T11:56:26;4.37;;;2.50;;
17725;SDS011;8983;53.156;17.960;2023-05-07T11:58:54;3.50;;;2.63;;
17725;SDS011;8983;53.156;17.960;2023-05-07T12:01:24;2.80;;;2.60;;
17725;SDS011;8983;53.156;17.960;2023-05-07T12:03:53;2.67;;;2.43;;
17725;SDS011;8983;53.156;17.960;2023-05-07T12:06:24;3.10;;;2.57;;
17725;SDS011;8983;53.156;17.960;2023-05-07T12:08:53;3.40;;;2.53;;
17725;SDS011;8983;53.156;17.960;2023-05-07T12:11:24;3.47;;;2.60;;
17725;SDS011;8983;53.156;17.960;2023-05-07T12:13:55;4.50;;;2.43;;
17725;SDS011;8983;53.156;17.960;2023-05-07T12:16:27;3.57;;;2.60;;
17725;SDS011;8983;53.156;17.960;2023-05-07T12:18:57;3.17;;;2.87;;
17725;SDS011;8983;53.156;17.960;2023-05-07T12:21:26;4.13;;;3.03;;
17725;SDS011;8983;53.156;17.960;2023-05-07T12:23:56;4.77;;;2.80;;
17725;SDS011;8983;53.156;17.960;2023-05-07T12:26:24;3.83;;;2.50;;
17725;SDS011;8983;53.156;17.960;2023-05-07T12:28:52;2.90;;;2.60;;
17725;SDS011;8983;53.156;17.960;2023-05-07T12:31:21;3.33;;;2.63;;
17725;SDS011;8983;53.156;17.960;2023-05-07T12:33:52;5.00;;;2.63;;
17725;SDS011;8983;53.156;17.960;2023-05-07T12:36:21;3.05;;;2.50;;
17725;SDS011;8983;53.156;17.960;2023-05-07T12:38:52;2.97;;;2.55;;
17725;SDS011;8983;53.156;17.960;2023-05-07T12:41:22;4.25;;;3.35;;
17725;SDS011;8983;53.156;17.960;2023-05-07T12:43:55;12.55;;;9.00;;
17725;SDS011;8983;53.156;17.960;2023-05-07T12:46:24;4.50;;;2.85;;
17725;SDS011;8983;53.156;17.960;2023-05-07T12:48:53;3.85;;;2.92;;
17725;SDS011;8983;53.156;17.960;2023-05-07T12:51:21;5.20;;;4.43;;
17725;SDS011;8983;53.156;17.960;2023-05-07T12:53:50;9.60;;;6.38;;
17725;SDS011;8983;53.156;17.960;2023-05-07T12:56:23;58.33;;;37.35;;
17725;SDS011;8983;53.156;17.960;2023-05-07T12:58:51;26.70;;;18.58;;
17725;SDS011;8983;53.156;17.960;2023-05-07T13:01:28;12.30;;;10.73;;
17725;SDS011;8983;53.156;17.960;2023-05-07T13:04:02;7.45;;;6.72;;
17725;SDS011;8983;53.156;17.960;2023-05-07T13:06:32;3.40;;;3.10;;
17725;SDS011;8983;53.156;17.960;2023-05-07T13:09:00;6.20;;;5.10;;
17725;SDS011;8983;53.156;17.960;2023-05-07T13:11:28;19.92;;;15.77;;
17725;SDS011;8983;53.156;17.960;2023-05-07T13:13:56;40.30;;;25.77;;
17725;SDS011;8983;53.156;17.960;2023-05-07T13:16:24;4.32;;;3.85;;
17725;SDS011;8983;53.156;17.960;2023-05-07T13:18:52;12.73;;;10.70;;
17725;SDS011;8983;53.156;17.960;2023-05-07T13:21:22;4.80;;;4.20;;
17725;SDS011;8983;53.156;17.960;2023-05-07T13:23:50;4.22;;;3.40;;
17725;SDS011;8983;53.156;17.960;2023-05-07T13:26:22;6.97;;;6.28;;
17725;SDS011;8983;53.156;17.960;2023-05-07T13:28:52;4.60;;;3.15;;
17725;SDS011;8983;53.156;17.960;2023-05-07T13:31:20;2.92;;;2.55;;
17725;SDS011;8983;53.156;17.960;2023-05-07T13:33:49;2.63;;;2.42;;
17725;SDS011;8983;53.156;17.960;2023-05-07T13:36:22;3.75;;;2.50;;
17725;SDS011;8983;53.156;17.960;2023-05-07T13:38:50;4.70;;;2.58;;
17725;SDS011;8983;53.156;17.960;2023-05-07T13:41:18;3.03;;;2.15;;
17725;SDS011;8983;53.156;17.960;2023-05-07T13:43:49;2.30;;;2.15;;
17725;SDS011;8983;53.156;17.960;2023-05-07T13:46:18;3.13;;;2.25;;
17725;SDS011;8983;53.156;17.960;2023-05-07T13:48:46;4.20;;;2.30;;
17725;SDS011;8983;53.156;17.960;2023-05-07T13:51:14;2.72;;;2.22;;
17725;SDS011;8983;53.156;17.960;2023-05-07T13:53:44;10.98;;;8.40;;
17725;SDS011;8983;53.156;17.960;2023-05-07T13:56:12;5.70;;;3.83;;
17725;SDS011;8983;53.156;17.960;2023-05-07T13:58:41;3.30;;;2.95;;
17725;SDS011;8983;53.156;17.960;2023-05-07T14:01:24;4.80;;;4.32;;
17725;SDS011;8983;53.156;17.960;2023-05-07T14:03:53;4.15;;;3.85;;
17725;SDS011;8983;53.156;17.960;2023-05-07T14:06:21;3.75;;;3.38;;
17725;SDS011;8983;53.156;17.960;2023-05-07T14:08:51;2.80;;;2.40;;
17725;SDS011;8983;53.156;17.960;2023-05-07T14:11:19;3.60;;;2.58;;
17725;SDS011;8983;53.156;17.960;2023-05-07T14:13:47;2.85;;;2.65;;
17725;SDS011;8983;53.156;17.960;2023-05-07T14:16:15;3.10;;;2.50;;
17725;SDS011;8983;53.156;17.960;2023-05-07T14:18:43;7.32;;;5.80;;
17725;SDS011;8983;53.156;17.960;2023-05-07T14:21:11;4.25;;;3.85;;
17725;SDS011;8983;53.156;17.960;2023-05-07T14:23:40;4.82;;;4.40;;
17725;SDS011;8983;53.156;17.960;2023-05-07T14:26:09;2.88;;;2.67;;
17725;SDS011;8983;53.156;17.960;2023-05-07T14:28:37;5.50;;;5.00;;
17725;SDS011;8983;53.156;17.960;2023-05-07T14:31:06;2.58;;;2.38;;
17725;SDS011;8983;53.156;17.960;2023-05-07T14:33:34;3.42;;;3.13;;
17725;SDS011;8983;53.156;17.960;2023-05-07T14:36:04;4.82;;;3.00;;
17725;SDS011;8983;53.156;17.960;2023-05-07T14:38:33;4.10;;;3.70;;
17725;SDS011;8983;53.156;17.960;2023-05-07T14:41:01;3.88;;;2.83;;
17725;SDS011;8983;53.156;17.960;2023-05-07T14:43:31;4.13;;;2.97;;
17725;SDS011;8983;53.156;17.960;2023-05-07T14:45:59;2.53;;;2.28;;
17725;SDS011;8983;53.156;17.960;2023-05-07T14:48:28;7.45;;;3.17;;
17725;SDS011;8983;53.156;17.960;2023-05-07T14:50:56;6.60;;;3.90;;
17725;SDS011;8983;53.156;17.960;2023-05-07T14:53:25;6.28;;;5.05;;
17725;SDS011;8983;53.156;17.960;2023-05-07T14:55:53;8.20;;;6.30;;
17725;SDS011;8983;53.156;17.960;2023-05-07T14:58:22;3.17;;;2.75;;
17725;SDS011;8983;53.156;17.960;2023-05-07T15:00:51;10.50;;;8.57;;